Portada
METAR-TAF:

METAR-TAF

Aeroports :

Illes Cocos, Austràlia

latitud: 12-11S, longitud: 096-49E, altitud: 3 m

Observació

L'informe es va fer fa 12 minuts, a les 22:00 UTC
Vent 15 kt del Sud-Est
Temperatura 26°C
Humitat 70%
Pressió 1013 hPa
Visibilitat 10 km o més
Cel ennuvolat a una alçada de 3200 ft
Cel ennuvolat a una alçada de 3800 ft
Cel cobert a una alçada de 4700 ft

METAR: YPCC 252200Z AUTO 13015KT 9999 // BKN032 BKN038 OVC047 26/20 Q1013

Hora: 04:42 (22:12 UTC)

Pronòstic

L'informe es va fer fa 5 hores i 3 minuts, a les 17:09 UTC
Pronòstic vàlid del 25 a les 18 UTC al 26 a les 18 UTC
Vent 14 kt del Sud-Est
Visibilitat 10 km o més
Núvols disperses a una alçada de 2500 ft

TAF: YPCC 251709Z 2518/2618 13014KT 9999 SCT025

Observacions i pronòstics meteorològics de més de 4000 aeroports (METAR i TAF).

Les estacions disponibles són els punts grocs i vermells al mapa.

Posi el ratolí al punt desitjat per veure el nom de l'estació.

Feu clic per veure les observacions i els pronòstics meteorològics.

Per canviar el mapa: feu clic els botons verds amb una creu de color negre per apropar; al botó verd amb un guió per allunyar la imatge; o en les fletxes verdes per a mapes adjacents.


METAR-TAF: